sensor_id;sensor_type;location;lat;lon;timestamp;P1;durP1;ratioP1;P2;durP2;ratioP2
3050;SDS011;1535;51.098;6.414;2024-03-06T00:02:10;7.63;;;7.53;;
3050;SDS011;1535;51.098;6.414;2024-03-06T00:04:39;7.17;;;7.07;;
3050;SDS011;1535;51.098;6.414;2024-03-06T00:07:06;7.50;;;7.40;;
3050;SDS011;1535;51.098;6.414;2024-03-06T00:09:33;7.30;;;7.20;;
3050;SDS011;1535;51.098;6.414;2024-03-06T00:12:02;7.77;;;7.67;;
3050;SDS011;1535;51.098;6.414;2024-03-06T00:14:29;7.80;;;7.70;;
3050;SDS011;1535;51.098;6.414;2024-03-06T00:16:56;7.93;;;7.83;;
3050;SDS011;1535;51.098;6.414;2024-03-06T00:19:23;7.93;;;7.83;;
3050;SDS011;1535;51.098;6.414;2024-03-06T00:21:52;8.47;;;8.37;;
3050;SDS011;1535;51.098;6.414;2024-03-06T00:24:19;8.87;;;8.77;;
3050;SDS011;1535;51.098;6.414;2024-03-06T00:26:46;8.87;;;8.77;;
3050;SDS011;1535;51.098;6.414;2024-03-06T00:29:13;8.43;;;8.33;;
3050;SDS011;1535;51.098;6.414;2024-03-06T00:31:42;8.90;;;8.80;;
3050;SDS011;1535;51.098;6.414;2024-03-06T00:34:09;9.23;;;9.03;;
3050;SDS011;1535;51.098;6.414;2024-03-06T00:36:39;9.50;;;9.30;;
3050;SDS011;1535;51.098;6.414;2024-03-06T00:39:08;9.27;;;9.07;;
3050;SDS011;1535;51.098;6.414;2024-03-06T00:41:36;9.30;;;9.10;;
3050;SDS011;1535;51.098;6.414;2024-03-06T00:44:04;8.63;;;8.53;;
3050;SDS011;1535;51.098;6.414;2024-03-06T00:46:32;9.10;;;8.90;;
3050;SDS011;1535;51.098;6.414;2024-03-06T00:48:59;8.33;;;8.23;;
3050;SDS011;1535;51.098;6.414;2024-03-06T00:51:26;8.37;;;8.27;;
3050;SDS011;1535;51.098;6.414;2024-03-06T00:53:53;8.70;;;8.60;;
3050;SDS011;1535;51.098;6.414;2024-03-06T00:56:23;8.93;;;8.77;;
3050;SDS011;1535;51.098;6.414;2024-03-06T00:58:50;8.63;;;8.53;;
3050;SDS011;1535;51.098;6.414;2024-03-06T01:01:17;8.70;;;8.60;;
3050;SDS011;1535;51.098;6.414;2024-03-06T01:03:44;8.63;;;8.53;;
3050;SDS011;1535;51.098;6.414;2024-03-06T01:06:12;8.53;;;8.43;;
3050;SDS011;1535;51.098;6.414;2024-03-06T01:08:39;9.00;;;8.90;;
3050;SDS011;1535;51.098;6.414;2024-03-06T01:11:06;8.20;;;8.10;;
3050;SDS011;1535;51.098;6.414;2024-03-06T01:13:35;7.97;;;7.87;;
3050;SDS011;1535;51.098;6.414;2024-03-06T01:16:02;8.77;;;8.67;;
3050;SDS011;1535;51.098;6.414;2024-03-06T01:18:29;8.37;;;8.27;;
3050;SDS011;1535;51.098;6.414;2024-03-06T01:20:56;8.00;;;7.90;;
3050;SDS011;1535;51.098;6.414;2024-03-06T01:23:23;8.17;;;8.07;;
3050;SDS011;1535;51.098;6.414;2024-03-06T01:25:51;8.57;;;8.47;;
3050;SDS011;1535;51.098;6.414;2024-03-06T01:28:18;8.40;;;8.30;;
3050;SDS011;1535;51.098;6.414;2024-03-06T01:30:47;8.47;;;8.37;;
3050;SDS011;1535;51.098;6.414;2024-03-06T01:33:14;9.03;;;8.90;;
3050;SDS011;1535;51.098;6.414;2024-03-06T01:35:41;8.57;;;8.47;;
3050;SDS011;1535;51.098;6.414;2024-03-06T01:38:08;9.23;;;9.03;;
3050;SDS011;1535;51.098;6.414;2024-03-06T01:40:36;9.20;;;9.00;;
3050;SDS011;1535;51.098;6.414;2024-03-06T01:43:03;8.70;;;8.60;;
3050;SDS011;1535;51.098;6.414;2024-03-06T01:45:30;9.20;;;9.10;;
3050;SDS011;1535;51.098;6.414;2024-03-06T01:47:59;9.00;;;8.90;;
3050;SDS011;1535;51.098;6.414;2024-03-06T01:50:26;9.10;;;9.00;;
3050;SDS011;1535;51.098;6.414;2024-03-06T01:52:54;8.93;;;8.83;;
3050;SDS011;1535;51.098;6.414;2024-03-06T01:55:21;9.13;;;9.00;;
3050;SDS011;1535;51.098;6.414;2024-03-06T01:57:48;9.17;;;9.03;;
3050;SDS011;1535;51.098;6.414;2024-03-06T02:00:16;8.90;;;8.80;;
3050;SDS011;1535;51.098;6.414;2024-03-06T02:02:43;9.60;;;9.40;;
3050;SDS011;1535;51.098;6.414;2024-03-06T02:05:11;10.13;;;9.93;;
3050;SDS011;1535;51.098;6.414;2024-03-06T02:07:39;9.53;;;9.33;;
3050;SDS011;1535;51.098;6.414;2024-03-06T02:10:07;9.70;;;9.50;;
3050;SDS011;1535;51.098;6.414;2024-03-06T02:12:37;9.47;;;9.27;;
3050;SDS011;1535;51.098;6.414;2024-03-06T02:15:06;9.33;;;9.13;;
3050;SDS011;1535;51.098;6.414;2024-03-06T02:17:33;9.60;;;9.40;;
3050;SDS011;1535;51.098;6.414;2024-03-06T02:20:01;9.90;;;9.70;;
3050;SDS011;1535;51.098;6.414;2024-03-06T02:22:32;10.30;;;10.10;;
3050;SDS011;1535;51.098;6.414;2024-03-06T02:24:59;10.20;;;10.00;;
3050;SDS011;1535;51.098;6.414;2024-03-06T02:27:26;10.57;;;10.37;;
3050;SDS011;1535;51.098;6.414;2024-03-06T02:29:53;10.27;;;10.07;;
3050;SDS011;1535;51.098;6.414;2024-03-06T02:32:20;10.67;;;10.47;;
3050;SDS011;1535;51.098;6.414;2024-03-06T02:34:49;11.07;;;10.87;;
3050;SDS011;1535;51.098;6.414;2024-03-06T02:37:16;10.63;;;10.43;;
3050;SDS011;1535;51.098;6.414;2024-03-06T02:39:45;10.07;;;9.87;;
3050;SDS011;1535;51.098;6.414;2024-03-06T02:42:12;9.97;;;9.77;;
3050;SDS011;1535;51.098;6.414;2024-03-06T02:44:39;9.70;;;9.50;;
3050;SDS011;1535;51.098;6.414;2024-03-06T02:47:06;10.77;;;10.57;;
3050;SDS011;1535;51.098;6.414;2024-03-06T02:49:33;10.50;;;10.30;;
3050;SDS011;1535;51.098;6.414;2024-03-06T02:52:01;10.37;;;10.17;;
3050;SDS011;1535;51.098;6.414;2024-03-06T02:54:28;10.50;;;10.30;;
3050;SDS011;1535;51.098;6.414;2024-03-06T02:56:56;11.10;;;10.90;;
3050;SDS011;1535;51.098;6.414;2024-03-06T02:59:24;11.10;;;10.90;;
3050;SDS011;1535;51.098;6.414;2024-03-06T03:01:51;11.10;;;10.90;;
3050;SDS011;1535;51.098;6.414;2024-03-06T03:04:18;11.47;;;11.17;;
3050;SDS011;1535;51.098;6.414;2024-03-06T03:06:45;11.70;;;11.40;;
3050;SDS011;1535;51.098;6.414;2024-03-06T03:09:13;11.27;;;11.00;;
3050;SDS011;1535;51.098;6.414;2024-03-06T03:11:41;10.87;;;10.67;;
3050;SDS011;1535;51.098;6.414;2024-03-06T03:14:11;11.77;;;11.47;;
3050;SDS011;1535;51.098;6.414;2024-03-06T03:16:38;12.07;;;11.77;;
3050;SDS011;1535;51.098;6.414;2024-03-06T03:19:06;11.40;;;11.10;;
3050;SDS011;1535;51.098;6.414;2024-03-06T03:21:34;12.20;;;11.90;;
3050;SDS011;1535;51.098;6.414;2024-03-06T03:24:01;12.40;;;12.10;;
3050;SDS011;1535;51.098;6.414;2024-03-06T03:26:29;12.40;;;12.10;;
3050;SDS011;1535;51.098;6.414;2024-03-06T03:28:56;12.53;;;12.23;;
3050;SDS011;1535;51.098;6.414;2024-03-06T03:31:24;12.70;;;12.40;;
3050;SDS011;1535;51.098;6.414;2024-03-06T03:33:52;12.30;;;12.00;;
3050;SDS011;1535;51.098;6.414;2024-03-06T03:36:19;12.33;;;12.03;;
3050;SDS011;1535;51.098;6.414;2024-03-06T03:38:46;11.70;;;11.40;;
3050;SDS011;1535;51.098;6.414;2024-03-06T03:41:13;12.70;;;12.40;;
3050;SDS011;1535;51.098;6.414;2024-03-06T03:43:41;12.83;;;12.53;;
3050;SDS011;1535;51.098;6.414;2024-03-06T03:46:09;12.67;;;12.37;;
3050;SDS011;1535;51.098;6.414;2024-03-06T03:48:37;12.90;;;12.60;;
3050;SDS011;1535;51.098;6.414;2024-03-06T03:51:05;13.03;;;12.73;;
3050;SDS011;1535;51.098;6.414;2024-03-06T03:53:32;12.67;;;12.37;;
3050;SDS011;1535;51.098;6.414;2024-03-06T03:55:59;13.13;;;12.77;;
3050;SDS011;1535;51.098;6.414;2024-03-06T03:58:27;13.40;;;13.00;;
3050;SDS011;1535;51.098;6.414;2024-03-06T04:00:54;13.97;;;13.57;;
3050;SDS011;1535;51.098;6.414;2024-03-06T04:03:21;13.17;;;12.83;;
3050;SDS011;1535;51.098;6.414;2024-03-06T04:05:50;13.47;;;13.07;;
3050;SDS011;1535;51.098;6.414;2024-03-06T04:08:17;13.50;;;13.10;;
3050;SDS011;1535;51.098;6.414;2024-03-06T04:10:44;13.60;;;13.20;;
3050;SDS011;1535;51.098;6.414;2024-03-06T04:13:12;13.70;;;13.30;;
3050;SDS011;1535;51.098;6.414;2024-03-06T04:15:39;14.10;;;13.70;;
3050;SDS011;1535;51.098;6.414;2024-03-06T04:18:07;13.77;;;13.37;;
3050;SDS011;1535;51.098;6.414;2024-03-06T04:20:34;13.83;;;13.43;;
3050;SDS011;1535;51.098;6.414;2024-03-06T04:23:03;15.57;;;15.07;;
3050;SDS011;1535;51.098;6.414;2024-03-06T04:25:30;15.40;;;14.90;;
3050;SDS011;1535;51.098;6.414;2024-03-06T04:27:57;15.43;;;14.93;;
3050;SDS011;1535;51.098;6.414;2024-03-06T04:30:24;14.93;;;14.50;;
3050;SDS011;1535;51.098;6.414;2024-03-06T04:32:51;15.50;;;15.00;;
3050;SDS011;1535;51.098;6.414;2024-03-06T04:35:18;14.40;;;14.00;;
3050;SDS011;1535;51.098;6.414;2024-03-06T04:37:45;14.53;;;14.13;;
3050;SDS011;1535;51.098;6.414;2024-03-06T04:40:14;15.90;;;15.40;;
3050;SDS011;1535;51.098;6.414;2024-03-06T04:42:45;14.53;;;14.13;;
3050;SDS011;1535;51.098;6.414;2024-03-06T04:45:14;15.60;;;15.10;;
3050;SDS011;1535;51.098;6.414;2024-03-06T04:47:42;15.20;;;14.70;;
3050;SDS011;1535;51.098;6.414;2024-03-06T04:50:09;15.13;;;14.63;;
3050;SDS011;1535;51.098;6.414;2024-03-06T04:52:36;14.97;;;14.57;;
3050;SDS011;1535;51.098;6.414;2024-03-06T04:55:04;16.20;;;15.70;;
3050;SDS011;1535;51.098;6.414;2024-03-06T04:57:34;15.90;;;15.40;;
3050;SDS011;1535;51.098;6.414;2024-03-06T05:00:02;16.13;;;15.63;;
3050;SDS011;1535;51.098;6.414;2024-03-06T05:02:30;16.63;;;16.13;;
3050;SDS011;1535;51.098;6.414;2024-03-06T05:05:00;16.00;;;15.50;;
3050;SDS011;1535;51.098;6.414;2024-03-06T05:07:27;16.20;;;15.70;;
3050;SDS011;1535;51.098;6.414;2024-03-06T05:09:55;15.83;;;15.33;;
3050;SDS011;1535;51.098;6.414;2024-03-06T05:12:23;16.80;;;16.20;;
3050;SDS011;1535;51.098;6.414;2024-03-06T05:14:52;16.07;;;15.57;;
3050;SDS011;1535;51.098;6.414;2024-03-06T05:17:19;16.80;;;16.20;;
3050;SDS011;1535;51.098;6.414;2024-03-06T05:19:46;17.20;;;16.60;;
3050;SDS011;1535;51.098;6.414;2024-03-06T05:22:14;16.67;;;16.07;;
3050;SDS011;1535;51.098;6.414;2024-03-06T05:24:41;17.00;;;16.40;;
3050;SDS011;1535;51.098;6.414;2024-03-06T05:27:08;17.43;;;16.77;;
3050;SDS011;1535;51.098;6.414;2024-03-06T05:29:38;17.30;;;16.70;;
3050;SDS011;1535;51.098;6.414;2024-03-06T05:32:06;16.80;;;16.20;;
3050;SDS011;1535;51.098;6.414;2024-03-06T05:34:34;17.50;;;16.90;;
3050;SDS011;1535;51.098;6.414;2024-03-06T05:37:01;16.93;;;16.33;;
3050;SDS011;1535;51.098;6.414;2024-03-06T05:39:30;17.57;;;16.97;;
3050;SDS011;1535;51.098;6.414;2024-03-06T05:41:59;18.00;;;17.30;;
3050;SDS011;1535;51.098;6.414;2024-03-06T05:44:28;17.23;;;16.63;;
3050;SDS011;1535;51.098;6.414;2024-03-06T05:46:56;18.00;;;17.30;;
3050;SDS011;1535;51.098;6.414;2024-03-06T05:49:25;17.90;;;17.20;;
3050;SDS011;1535;51.098;6.414;2024-03-06T05:51:52;18.00;;;17.30;;
3050;SDS011;1535;51.098;6.414;2024-03-06T05:54:19;18.43;;;17.73;;
3050;SDS011;1535;51.098;6.414;2024-03-06T05:56:47;18.30;;;17.60;;
3050;SDS011;1535;51.098;6.414;2024-03-06T05:59:16;17.47;;;16.83;;
3050;SDS011;1535;51.098;6.414;2024-03-06T06:01:43;17.37;;;16.77;;
3050;SDS011;1535;51.098;6.414;2024-03-06T06:04:10;18.13;;;17.43;;
3050;SDS011;1535;51.098;6.414;2024-03-06T06:06:40;17.87;;;17.17;;
3050;SDS011;1535;51.098;6.414;2024-03-06T06:09:07;17.30;;;16.70;;
3050;SDS011;1535;51.098;6.414;2024-03-06T06:11:38;17.63;;;17.00;;
3050;SDS011;1535;51.098;6.414;2024-03-06T06:14:05;16.47;;;15.87;;
3050;SDS011;1535;51.098;6.414;2024-03-06T06:16:36;17.53;;;16.93;;
3050;SDS011;1535;51.098;6.414;2024-03-06T06:19:03;17.00;;;16.40;;
3050;SDS011;1535;51.098;6.414;2024-03-06T06:21:31;18.00;;;17.40;;
3050;SDS011;1535;51.098;6.414;2024-03-06T06:24:02;17.20;;;16.60;;
3050;SDS011;1535;51.098;6.414;2024-03-06T06:26:29;17.50;;;16.90;;
3050;SDS011;1535;51.098;6.414;2024-03-06T06:28:57;17.27;;;16.67;;
3050;SDS011;1535;51.098;6.414;2024-03-06T06:31:24;17.60;;;17.00;;
3050;SDS011;1535;51.098;6.414;2024-03-06T06:33:52;18.07;;;17.47;;
3050;SDS011;1535;51.098;6.414;2024-03-06T06:36:19;17.50;;;16.90;;
3050;SDS011;1535;51.098;6.414;2024-03-06T06:38:46;17.37;;;16.77;;
3050;SDS011;1535;51.098;6.414;2024-03-06T06:41:15;16.87;;;16.27;;
3050;SDS011;1535;51.098;6.414;2024-03-06T06:43:42;17.40;;;16.80;;
3050;SDS011;1535;51.098;6.414;2024-03-06T06:46:09;17.13;;;16.53;;
3050;SDS011;1535;51.098;6.414;2024-03-06T06:48:36;18.00;;;17.40;;
3050;SDS011;1535;51.098;6.414;2024-03-06T06:51:03;17.63;;;17.03;;
3050;SDS011;1535;51.098;6.414;2024-03-06T06:53:31;17.33;;;16.73;;
3050;SDS011;1535;51.098;6.414;2024-03-06T06:55:58;18.40;;;17.70;;
3050;SDS011;1535;51.098;6.414;2024-03-06T06:58:26;18.00;;;17.40;;
3050;SDS011;1535;51.098;6.414;2024-03-06T07:00:53;16.30;;;15.80;;
3050;SDS011;1535;51.098;6.414;2024-03-06T07:03:21;17.30;;;16.70;;
3050;SDS011;1535;51.098;6.414;2024-03-06T07:05:54;17.43;;;16.83;;
3050;SDS011;1535;51.098;6.414;2024-03-06T07:08:22;16.90;;;16.30;;
3050;SDS011;1535;51.098;6.414;2024-03-06T07:10:49;16.83;;;16.23;;
3050;SDS011;1535;51.098;6.414;2024-03-06T07:13:18;17.53;;;16.93;;
3050;SDS011;1535;51.098;6.414;2024-03-06T07:15:46;17.80;;;17.20;;
3050;SDS011;1535;51.098;6.414;2024-03-06T07:18:14;18.20;;;17.50;;
3050;SDS011;1535;51.098;6.414;2024-03-06T07:20:41;17.43;;;16.83;;
3050;SDS011;1535;51.098;6.414;2024-03-06T07:23:08;18.30;;;17.60;;
3050;SDS011;1535;51.098;6.414;2024-03-06T07:25:35;17.20;;;16.60;;
3050;SDS011;1535;51.098;6.414;2024-03-06T07:28:02;17.60;;;17.00;;
3050;SDS011;1535;51.098;6.414;2024-03-06T07:30:29;17.60;;;17.00;;
3050;SDS011;1535;51.098;6.414;2024-03-06T07:32:58;16.90;;;16.30;;
3050;SDS011;1535;51.098;6.414;2024-03-06T07:35:25;18.80;;;18.10;;
3050;SDS011;1535;51.098;6.414;2024-03-06T07:37:52;17.90;;;17.20;;
3050;SDS011;1535;51.098;6.414;2024-03-06T07:40:19;18.00;;;17.30;;
3050;SDS011;1535;51.098;6.414;2024-03-06T07:42:47;17.30;;;16.70;;
3050;SDS011;1535;51.098;6.414;2024-03-06T07:45:14;16.30;;;15.80;;
3050;SDS011;1535;51.098;6.414;2024-03-06T07:47:41;16.07;;;15.57;;
3050;SDS011;1535;51.098;6.414;2024-03-06T07:50:10;17.37;;;16.77;;
3050;SDS011;1535;51.098;6.414;2024-03-06T07:52:37;16.53;;;15.93;;
3050;SDS011;1535;51.098;6.414;2024-03-06T07:55:05;16.80;;;16.20;;
3050;SDS011;1535;51.098;6.414;2024-03-06T07:57:32;16.40;;;15.80;;
3050;SDS011;1535;51.098;6.414;2024-03-06T07:59:59;16.57;;;15.97;;
3050;SDS011;1535;51.098;6.414;2024-03-06T08:02:26;15.70;;;15.20;;
3050;SDS011;1535;51.098;6.414;2024-03-06T08:04:54;14.43;;;14.03;;
3050;SDS011;1535;51.098;6.414;2024-03-06T08:07:23;14.90;;;14.40;;
3050;SDS011;1535;51.098;6.414;2024-03-06T08:09:50;14.30;;;13.90;;
3050;SDS011;1535;51.098;6.414;2024-03-06T08:12:17;14.20;;;13.80;;
3050;SDS011;1535;51.098;6.414;2024-03-06T08:14:44;14.17;;;13.73;;
3050;SDS011;1535;51.098;6.414;2024-03-06T08:17:11;13.80;;;13.40;;
3050;SDS011;1535;51.098;6.414;2024-03-06T08:19:39;13.93;;;13.43;;
3050;SDS011;1535;51.098;6.414;2024-03-06T08:22:06;13.80;;;13.40;;
3050;SDS011;1535;51.098;6.414;2024-03-06T08:24:35;13.60;;;13.20;;
3050;SDS011;1535;51.098;6.414;2024-03-06T08:27:02;13.40;;;13.00;;
3050;SDS011;1535;51.098;6.414;2024-03-06T08:29:29;13.67;;;13.27;;
3050;SDS011;1535;51.098;6.414;2024-03-06T08:31:56;12.63;;;12.23;;
3050;SDS011;1535;51.098;6.414;2024-03-06T08:34:26;13.37;;;12.97;;
3050;SDS011;1535;51.098;6.414;2024-03-06T08:36:53;12.80;;;12.40;;
3050;SDS011;1535;51.098;6.414;2024-03-06T08:39:21;12.57;;;12.17;;
3050;SDS011;1535;51.098;6.414;2024-03-06T08:41:50;12.90;;;12.50;;
3050;SDS011;1535;51.098;6.414;2024-03-06T08:44:17;13.27;;;12.87;;
3050;SDS011;1535;51.098;6.414;2024-03-06T08:46:45;13.70;;;13.20;;
3050;SDS011;1535;51.098;6.414;2024-03-06T08:49:13;13.73;;;13.23;;
3050;SDS011;1535;51.098;6.414;2024-03-06T08:51:40;13.53;;;13.07;;
3050;SDS011;1535;51.098;6.414;2024-03-06T08:54:07;13.77;;;13.27;;
3050;SDS011;1535;51.098;6.414;2024-03-06T08:56:35;13.67;;;13.17;;
3050;SDS011;1535;51.098;6.414;2024-03-06T08:59:04;14.00;;;13.50;;
3050;SDS011;1535;51.098;6.414;2024-03-06T09:01:31;15.27;;;14.67;;
3050;SDS011;1535;51.098;6.414;2024-03-06T09:03:58;14.90;;;14.30;;
3050;SDS011;1535;51.098;6.414;2024-03-06T09:06:25;15.23;;;14.63;;
3050;SDS011;1535;51.098;6.414;2024-03-06T09:08:53;14.97;;;14.37;;
3050;SDS011;1535;51.098;6.414;2024-03-06T09:11:20;14.97;;;14.37;;
3050;SDS011;1535;51.098;6.414;2024-03-06T09:13:48;15.23;;;14.63;;
3050;SDS011;1535;51.098;6.414;2024-03-06T09:16:16;15.03;;;14.43;;
3050;SDS011;1535;51.098;6.414;2024-03-06T09:18:44;14.20;;;13.70;;
3050;SDS011;1535;51.098;6.414;2024-03-06T09:21:11;14.70;;;14.10;;
3050;SDS011;1535;51.098;6.414;2024-03-06T09:23:38;15.53;;;14.93;;
3050;SDS011;1535;51.098;6.414;2024-03-06T09:26:05;14.27;;;13.77;;
3050;SDS011;1535;51.098;6.414;2024-03-06T09:28:32;14.13;;;13.63;;
3050;SDS011;1535;51.098;6.414;2024-03-06T09:30:59;14.13;;;13.63;;
3050;SDS011;1535;51.098;6.414;2024-03-06T09:33:28;13.73;;;13.23;;
3050;SDS011;1535;51.098;6.414;2024-03-06T09:35:55;14.27;;;13.77;;
3050;SDS011;1535;51.098;6.414;2024-03-06T09:38:23;14.13;;;13.63;;
3050;SDS011;1535;51.098;6.414;2024-03-06T09:40:50;15.00;;;14.40;;
3050;SDS011;1535;51.098;6.414;2024-03-06T09:43:19;14.63;;;14.03;;
3050;SDS011;1535;51.098;6.414;2024-03-06T09:45:48;14.97;;;14.37;;
3050;SDS011;1535;51.098;6.414;2024-03-06T09:48:15;14.30;;;13.80;;
3050;SDS011;1535;51.098;6.414;2024-03-06T09:50:44;15.40;;;14.80;;
3050;SDS011;1535;51.098;6.414;2024-03-06T09:53:13;15.33;;;14.73;;
3050;SDS011;1535;51.098;6.414;2024-03-06T09:55:41;15.00;;;14.40;;
3050;SDS011;1535;51.098;6.414;2024-03-06T09:58:09;14.90;;;14.30;;
3050;SDS011;1535;51.098;6.414;2024-03-06T10:00:36;15.13;;;14.53;;
3050;SDS011;1535;51.098;6.414;2024-03-06T10:03:03;14.20;;;13.70;;
3050;SDS011;1535;51.098;6.414;2024-03-06T10:05:33;14.30;;;13.80;;
3050;SDS011;1535;51.098;6.414;2024-03-06T10:08:02;14.90;;;14.30;;
3050;SDS011;1535;51.098;6.414;2024-03-06T10:10:30;14.80;;;14.30;;
3050;SDS011;1535;51.098;6.414;2024-03-06T10:12:57;14.17;;;13.67;;
3050;SDS011;1535;51.098;6.414;2024-03-06T10:15:25;13.90;;;13.40;;
3050;SDS011;1535;51.098;6.414;2024-03-06T10:18:06;13.50;;;13.10;;
3050;SDS011;1535;51.098;6.414;2024-03-06T10:20:37;13.40;;;13.00;;
3050;SDS011;1535;51.098;6.414;2024-03-06T10:23:05;13.50;;;13.10;;
3050;SDS011;1535;51.098;6.414;2024-03-06T10:25:34;14.23;;;13.73;;
3050;SDS011;1535;51.098;6.414;2024-03-06T10:28:05;13.90;;;13.40;;
3050;SDS011;1535;51.098;6.414;2024-03-06T10:30:33;14.20;;;13.70;;
3050;SDS011;1535;51.098;6.414;2024-03-06T10:33:01;13.50;;;13.10;;
3050;SDS011;1535;51.098;6.414;2024-03-06T10:35:28;14.00;;;13.50;;
3050;SDS011;1535;51.098;6.414;2024-03-06T10:37:55;13.80;;;13.30;;
3050;SDS011;1535;51.098;6.414;2024-03-06T10:40:24;14.70;;;14.20;;
3050;SDS011;1535;51.098;6.414;2024-03-06T10:42:54;14.50;;;14.00;;
3050;SDS011;1535;51.098;6.414;2024-03-06T10:45:22;14.30;;;13.80;;
3050;SDS011;1535;51.098;6.414;2024-03-06T10:47:51;14.77;;;14.27;;
3050;SDS011;1535;51.098;6.414;2024-03-06T10:50:18;14.70;;;14.20;;
3050;SDS011;1535;51.098;6.414;2024-03-06T10:52:46;14.90;;;14.40;;
3050;SDS011;1535;51.098;6.414;2024-03-06T10:55:14;14.53;;;14.03;;
3050;SDS011;1535;51.098;6.414;2024-03-06T10:57:44;14.40;;;13.90;;
3050;SDS011;1535;51.098;6.414;2024-03-06T11:00:13;15.50;;;14.90;;
3050;SDS011;1535;51.098;6.414;2024-03-06T11:02:45;15.37;;;14.77;;
3050;SDS011;1535;51.098;6.414;2024-03-06T11:05:13;15.33;;;14.73;;
3050;SDS011;1535;51.098;6.414;2024-03-06T11:07:41;15.57;;;14.97;;
3050;SDS011;1535;51.098;6.414;2024-03-06T11:10:09;15.30;;;14.70;;
3050;SDS011;1535;51.098;6.414;2024-03-06T11:12:41;15.33;;;14.73;;
3050;SDS011;1535;51.098;6.414;2024-03-06T11:15:12;15.10;;;14.50;;
3050;SDS011;1535;51.098;6.414;2024-03-06T11:17:40;15.23;;;14.63;;
3050;SDS011;1535;51.098;6.414;2024-03-06T11:20:08;16.00;;;15.40;;
3050;SDS011;1535;51.098;6.414;2024-03-06T11:28:06;15.00;;;14.40;;
3050;SDS011;1535;51.098;6.414;2024-03-06T11:30:45;14.50;;;14.00;;
3050;SDS011;1535;51.098;6.414;2024-03-06T11:33:13;14.70;;;14.20;;
3050;SDS011;1535;51.098;6.414;2024-03-06T11:35:41;15.00;;;14.40;;
3050;SDS011;1535;51.098;6.414;2024-03-06T11:38:16;15.10;;;14.50;;
3050;SDS011;1535;51.098;6.414;2024-03-06T11:40:43;14.77;;;14.27;;
3050;SDS011;1535;51.098;6.414;2024-03-06T11:43:23;14.77;;;14.27;;
3050;SDS011;1535;51.098;6.414;2024-03-06T11:45:54;14.70;;;14.20;;
3050;SDS011;1535;51.098;6.414;2024-03-06T11:48:34;14.50;;;14.00;;
3050;SDS011;1535;51.098;6.414;2024-03-06T11:51:02;14.17;;;13.67;;
3050;SDS011;1535;51.098;6.414;2024-03-06T11:53:29;14.40;;;13.90;;
3050;SDS011;1535;51.098;6.414;2024-03-06T11:55:57;14.50;;;14.00;;
3050;SDS011;1535;51.098;6.414;2024-03-06T11:58:24;15.60;;;15.00;;
3050;SDS011;1535;51.098;6.414;2024-03-06T12:00:53;15.43;;;14.83;;
3050;SDS011;1535;51.098;6.414;2024-03-06T12:03:21;15.20;;;14.60;;
3050;SDS011;1535;51.098;6.414;2024-03-06T12:05:50;15.30;;;14.70;;
3050;SDS011;1535;51.098;6.414;2024-03-06T12:08:18;16.03;;;15.43;;
3050;SDS011;1535;51.098;6.414;2024-03-06T12:10:45;14.90;;;14.40;;
3050;SDS011;1535;51.098;6.414;2024-03-06T12:13:14;15.20;;;14.60;;
3050;SDS011;1535;51.098;6.414;2024-03-06T12:15:42;15.50;;;14.90;;
3050;SDS011;1535;51.098;6.414;2024-03-06T12:18:12;15.40;;;14.80;;
3050;SDS011;1535;51.098;6.414;2024-03-06T12:20:42;15.50;;;14.90;;
3050;SDS011;1535;51.098;6.414;2024-03-06T12:23:18;15.70;;;15.10;;
3050;SDS011;1535;51.098;6.414;2024-03-06T12:25:47;15.70;;;15.10;;
3050;SDS011;1535;51.098;6.414;2024-03-06T12:28:14;15.67;;;15.07;;
3050;SDS011;1535;51.098;6.414;2024-03-06T12:30:43;16.00;;;15.40;;
3050;SDS011;1535;51.098;6.414;2024-03-06T12:33:15;16.27;;;15.57;;
3050;SDS011;1535;51.098;6.414;2024-03-06T12:35:43;16.60;;;15.90;;
3050;SDS011;1535;51.098;6.414;2024-03-06T12:38:13;16.70;;;16.00;;
3050;SDS011;1535;51.098;6.414;2024-03-06T12:40:40;16.47;;;15.80;;
3050;SDS011;1535;51.098;6.414;2024-03-06T12:43:08;16.83;;;16.13;;
3050;SDS011;1535;51.098;6.414;2024-03-06T12:45:35;16.33;;;15.73;;
3050;SDS011;1535;51.098;6.414;2024-03-06T12:48:03;15.80;;;15.20;;
3050;SDS011;1535;51.098;6.414;2024-03-06T12:50:33;16.63;;;16.03;;
3050;SDS011;1535;51.098;6.414;2024-03-06T12:53:00;15.33;;;14.83;;
3050;SDS011;1535;51.098;6.414;2024-03-06T12:55:29;16.13;;;15.53;;
3050;SDS011;1535;51.098;6.414;2024-03-06T12:57:56;16.20;;;15.60;;
3050;SDS011;1535;51.098;6.414;2024-03-06T13:00:23;16.30;;;15.70;;
3050;SDS011;1535;51.098;6.414;2024-03-06T13:02:51;16.00;;;15.40;;
3050;SDS011;1535;51.098;6.414;2024-03-06T13:05:18;16.00;;;15.40;;
3050;SDS011;1535;51.098;6.414;2024-03-06T13:07:47;16.67;;;16.07;;
3050;SDS011;1535;51.098;6.414;2024-03-06T13:10:15;16.80;;;16.20;;
3050;SDS011;1535;51.098;6.414;2024-03-06T13:12:42;17.17;;;16.57;;
3050;SDS011;1535;51.098;6.414;2024-03-06T13:15:09;17.07;;;16.43;;
3050;SDS011;1535;51.098;6.414;2024-03-06T13:17:36;16.83;;;16.23;;
3050;SDS011;1535;51.098;6.414;2024-03-06T13:20:05;16.60;;;16.00;;
3050;SDS011;1535;51.098;6.414;2024-03-06T13:25:17;16.53;;;15.93;;
3050;SDS011;1535;51.098;6.414;2024-03-06T13:27:45;16.17;;;15.57;;
3050;SDS011;1535;51.098;6.414;2024-03-06T13:30:12;15.60;;;15.10;;
3050;SDS011;1535;51.098;6.414;2024-03-06T13:32:40;17.00;;;16.40;;
3050;SDS011;1535;51.098;6.414;2024-03-06T13:35:10;17.27;;;16.67;;
3050;SDS011;1535;51.098;6.414;2024-03-06T13:37:38;17.53;;;16.83;;
3050;SDS011;1535;51.098;6.414;2024-03-06T13:40:06;17.20;;;16.50;;
3050;SDS011;1535;51.098;6.414;2024-03-06T13:42:35;17.10;;;16.40;;
3050;SDS011;1535;51.098;6.414;2024-03-06T13:45:02;17.20;;;16.50;;
3050;SDS011;1535;51.098;6.414;2024-03-06T13:47:30;17.20;;;16.50;;
3050;SDS011;1535;51.098;6.414;2024-03-06T13:49:57;17.00;;;16.40;;
3050;SDS011;1535;51.098;6.414;2024-03-06T13:52:24;17.40;;;16.77;;
3050;SDS011;1535;51.098;6.414;2024-03-06T13:54:51;17.67;;;16.97;;
3050;SDS011;1535;51.098;6.414;2024-03-06T13:57:18;16.80;;;16.20;;
3050;SDS011;1535;51.098;6.414;2024-03-06T13:59:47;16.93;;;16.33;;
3050;SDS011;1535;51.098;6.414;2024-03-06T14:02:15;17.00;;;16.40;;
3050;SDS011;1535;51.098;6.414;2024-03-06T14:04:42;17.60;;;16.90;;
3050;SDS011;1535;51.098;6.414;2024-03-06T14:07:09;17.00;;;16.40;;
3050;SDS011;1535;51.098;6.414;2024-03-06T14:09:37;17.77;;;17.07;;
3050;SDS011;1535;51.098;6.414;2024-03-06T14:12:06;17.30;;;16.70;;
3050;SDS011;1535;51.098;6.414;2024-03-06T14:14:33;17.70;;;17.00;;
3050;SDS011;1535;51.098;6.414;2024-03-06T14:17:01;18.30;;;17.60;;
3050;SDS011;1535;51.098;6.414;2024-03-06T14:19:29;17.50;;;16.90;;
3050;SDS011;1535;51.098;6.414;2024-03-06T14:21:56;18.10;;;17.40;;
3050;SDS011;1535;51.098;6.414;2024-03-06T14:24:23;17.10;;;16.50;;
3050;SDS011;1535;51.098;6.414;2024-03-06T14:26:50;17.60;;;16.90;;
3050;SDS011;1535;51.098;6.414;2024-03-06T14:29:17;17.80;;;17.10;;
3050;SDS011;1535;51.098;6.414;2024-03-06T14:31:44;17.50;;;16.80;;
3050;SDS011;1535;51.098;6.414;2024-03-06T14:34:13;17.63;;;17.03;;
3050;SDS011;1535;51.098;6.414;2024-03-06T14:36:40;17.70;;;17.00;;
3050;SDS011;1535;51.098;6.414;2024-03-06T14:39:09;17.40;;;16.80;;
3050;SDS011;1535;51.098;6.414;2024-03-06T14:41:36;17.60;;;16.90;;
3050;SDS011;1535;51.098;6.414;2024-03-06T14:44:04;18.00;;;17.30;;
3050;SDS011;1535;51.098;6.414;2024-03-06T14:46:31;17.90;;;17.20;;
3050;SDS011;1535;51.098;6.414;2024-03-06T14:48:59;17.50;;;16.80;;
3050;SDS011;1535;51.098;6.414;2024-03-06T14:51:29;17.63;;;16.93;;
3050;SDS011;1535;51.098;6.414;2024-03-06T14:53:56;17.70;;;17.00;;
3050;SDS011;1535;51.098;6.414;2024-03-06T14:56:22;18.07;;;17.37;;
3050;SDS011;1535;51.098;6.414;2024-03-06T14:58:49;17.67;;;17.00;;
3050;SDS011;1535;51.098;6.414;2024-03-06T15:01:16;18.10;;;17.40;;
3050;SDS011;1535;51.098;6.414;2024-03-06T15:03:44;17.57;;;16.87;;
3050;SDS011;1535;51.098;6.414;2024-03-06T15:06:11;17.90;;;17.20;;